sensor_id;sensor_type;location;lat;lon;timestamp;P1;durP1;ratioP1;P2;durP2;ratioP2
2201;SDS011;1107;48.654;9.250;2022-10-30T00:00:59;10.60;;;6.07;;
2201;SDS011;1107;48.654;9.250;2022-10-30T00:03:26;6.83;;;5.70;;
2201;SDS011;1107;48.654;9.250;2022-10-30T00:05:53;8.20;;;5.70;;
2201;SDS011;1107;48.654;9.250;2022-10-30T00:08:21;9.40;;;6.20;;
2201;SDS011;1107;48.654;9.250;2022-10-30T00:10:50;13.70;;;5.60;;
2201;SDS011;1107;48.654;9.250;2022-10-30T00:13:17;6.60;;;5.67;;
2201;SDS011;1107;48.654;9.250;2022-10-30T00:15:45;7.13;;;5.50;;
2201;SDS011;1107;48.654;9.250;2022-10-30T00:18:15;21.37;;;5.80;;
2201;SDS011;1107;48.654;9.250;2022-10-30T00:20:42;22.40;;;5.23;;
2201;SDS011;1107;48.654;9.250;2022-10-30T00:23:09;15.33;;;5.77;;
2201;SDS011;1107;48.654;9.250;2022-10-30T00:25:36;5.93;;;5.53;;
2201;SDS011;1107;48.654;9.250;2022-10-30T00:28:04;11.57;;;6.60;;
2201;SDS011;1107;48.654;9.250;2022-10-30T00:30:31;12.17;;;6.07;;
2201;SDS011;1107;48.654;9.250;2022-10-30T00:32:59;17.87;;;6.57;;
2201;SDS011;1107;48.654;9.250;2022-10-30T00:35:27;13.17;;;7.10;;
2201;SDS011;1107;48.654;9.250;2022-10-30T00:37:54;9.40;;;6.20;;
2201;SDS011;1107;48.654;9.250;2022-10-30T00:40:21;13.27;;;6.37;;
2201;SDS011;1107;48.654;9.250;2022-10-30T00:42:49;10.63;;;5.43;;
2201;SDS011;1107;48.654;9.250;2022-10-30T00:45:16;14.03;;;6.50;;
2201;SDS011;1107;48.654;9.250;2022-10-30T00:47:43;15.30;;;7.10;;
2201;SDS011;1107;48.654;9.250;2022-10-30T00:50:18;10.23;;;6.87;;
2201;SDS011;1107;48.654;9.250;2022-10-30T00:52:51;10.93;;;7.00;;
2201;SDS011;1107;48.654;9.250;2022-10-30T00:55:24;7.87;;;5.93;;
2201;SDS011;1107;48.654;9.250;2022-10-30T00:57:56;8.40;;;7.60;;
2201;SDS011;1107;48.654;9.250;2022-10-30T01:00:24;14.10;;;7.37;;
2201;SDS011;1107;48.654;9.250;2022-10-30T01:02:54;8.50;;;6.73;;
2201;SDS011;1107;48.654;9.250;2022-10-30T01:05:23;7.30;;;6.67;;
2201;SDS011;1107;48.654;9.250;2022-10-30T01:07:53;10.03;;;6.37;;
2201;SDS011;1107;48.654;9.250;2022-10-30T01:10:20;11.47;;;7.00;;
2201;SDS011;1107;48.654;9.250;2022-10-30T01:12:48;13.33;;;6.90;;
2201;SDS011;1107;48.654;9.250;2022-10-30T01:15:16;11.63;;;7.07;;
2201;SDS011;1107;48.654;9.250;2022-10-30T01:17:56;9.83;;;6.27;;
2201;SDS011;1107;48.654;9.250;2022-10-30T01:21:01;14.40;;;7.30;;
2201;SDS011;1107;48.654;9.250;2022-10-30T01:23:42;11.70;;;6.23;;
2201;SDS011;1107;48.654;9.250;2022-10-30T01:26:32;11.85;;;7.30;;
2201;SDS011;1107;48.654;9.250;2022-10-30T01:29:10;10.90;;;7.43;;
2201;SDS011;1107;48.654;9.250;2022-10-30T01:31:52;10.33;;;6.77;;
2201;SDS011;1107;48.654;9.250;2022-10-30T01:34:33;10.77;;;6.53;;
2201;SDS011;1107;48.654;9.250;2022-10-30T01:37:09;17.47;;;8.00;;
2201;SDS011;1107;48.654;9.250;2022-10-30T01:39:45;9.77;;;6.60;;
2201;SDS011;1107;48.654;9.250;2022-10-30T01:45:11;17.27;;;6.20;;
2201;SDS011;1107;48.654;9.250;2022-10-30T01:47:43;9.47;;;6.43;;
2201;SDS011;1107;48.654;9.250;2022-10-30T01:50:21;6.97;;;6.30;;
2201;SDS011;1107;48.654;9.250;2022-10-30T01:52:59;6.63;;;6.03;;
2201;SDS011;1107;48.654;9.250;2022-10-30T01:55:36;8.40;;;5.73;;
2201;SDS011;1107;48.654;9.250;2022-10-30T01:58:14;9.47;;;6.17;;
2201;SDS011;1107;48.654;9.250;2022-10-30T02:00:45;12.30;;;6.27;;
2201;SDS011;1107;48.654;9.250;2022-10-30T02:03:17;6.90;;;6.20;;
2201;SDS011;1107;48.654;9.250;2022-10-30T02:05:46;15.33;;;6.27;;
2201;SDS011;1107;48.654;9.250;2022-10-30T02:08:14;15.70;;;5.77;;
2201;SDS011;1107;48.654;9.250;2022-10-30T02:10:43;8.20;;;5.23;;
2201;SDS011;1107;48.654;9.250;2022-10-30T02:13:13;9.47;;;5.30;;
2201;SDS011;1107;48.654;9.250;2022-10-30T02:15:40;7.50;;;5.27;;
2201;SDS011;1107;48.654;9.250;2022-10-30T02:18:08;13.07;;;6.10;;
2201;SDS011;1107;48.654;9.250;2022-10-30T02:20:36;21.23;;;5.60;;
2201;SDS011;1107;48.654;9.250;2022-10-30T02:23:03;7.50;;;5.27;;
2201;SDS011;1107;48.654;9.250;2022-10-30T02:25:32;21.70;;;5.63;;
2201;SDS011;1107;48.654;9.250;2022-10-30T02:27:59;19.03;;;4.90;;
2201;SDS011;1107;48.654;9.250;2022-10-30T02:30:26;10.03;;;6.23;;
2201;SDS011;1107;48.654;9.250;2022-10-30T02:32:53;16.40;;;6.07;;
2201;SDS011;1107;48.654;9.250;2022-10-30T02:35:20;10.03;;;5.03;;
2201;SDS011;1107;48.654;9.250;2022-10-30T02:37:49;9.20;;;5.27;;
2201;SDS011;1107;48.654;9.250;2022-10-30T02:40:16;16.43;;;5.97;;
2201;SDS011;1107;48.654;9.250;2022-10-30T02:42:43;6.90;;;5.50;;
2201;SDS011;1107;48.654;9.250;2022-10-30T02:45:10;8.23;;;5.27;;
2201;SDS011;1107;48.654;9.250;2022-10-30T02:47:36;13.23;;;5.30;;
2201;SDS011;1107;48.654;9.250;2022-10-30T02:50:04;9.43;;;5.80;;
2201;SDS011;1107;48.654;9.250;2022-10-30T02:52:31;6.70;;;5.30;;
2201;SDS011;1107;48.654;9.250;2022-10-30T02:55:00;4.60;;;4.20;;
2201;SDS011;1107;48.654;9.250;2022-10-30T02:57:27;9.83;;;5.87;;
2201;SDS011;1107;48.654;9.250;2022-10-30T02:59:54;14.37;;;6.23;;
2201;SDS011;1107;48.654;9.250;2022-10-30T03:02:21;6.23;;;5.30;;
2201;SDS011;1107;48.654;9.250;2022-10-30T03:04:47;14.47;;;4.73;;
2201;SDS011;1107;48.654;9.250;2022-10-30T03:07:14;16.17;;;5.10;;
2201;SDS011;1107;48.654;9.250;2022-10-30T03:09:41;17.43;;;4.93;;
2201;SDS011;1107;48.654;9.250;2022-10-30T03:12:10;11.13;;;6.30;;
2201;SDS011;1107;48.654;9.250;2022-10-30T03:14:37;17.70;;;5.20;;
2201;SDS011;1107;48.654;9.250;2022-10-30T03:17:04;11.73;;;5.57;;
2201;SDS011;1107;48.654;9.250;2022-10-30T03:19:31;8.53;;;4.80;;
2201;SDS011;1107;48.654;9.250;2022-10-30T03:21:57;5.40;;;4.10;;
2201;SDS011;1107;48.654;9.250;2022-10-30T03:24:24;11.23;;;4.80;;
2201;SDS011;1107;48.654;9.250;2022-10-30T03:26:51;10.33;;;6.43;;
2201;SDS011;1107;48.654;9.250;2022-10-30T03:29:20;31.00;;;5.63;;
2201;SDS011;1107;48.654;9.250;2022-10-30T03:31:46;11.83;;;5.17;;
2201;SDS011;1107;48.654;9.250;2022-10-30T03:34:13;11.03;;;5.13;;
2201;SDS011;1107;48.654;9.250;2022-10-30T03:36:40;9.60;;;5.83;;
2201;SDS011;1107;48.654;9.250;2022-10-30T03:39:07;6.80;;;6.07;;
2201;SDS011;1107;48.654;9.250;2022-10-30T03:41:35;6.00;;;5.40;;
2201;SDS011;1107;48.654;9.250;2022-10-30T03:44:01;7.03;;;5.27;;
2201;SDS011;1107;48.654;9.250;2022-10-30T03:46:30;7.47;;;5.37;;
2201;SDS011;1107;48.654;9.250;2022-10-30T03:48:57;17.93;;;5.57;;
2201;SDS011;1107;48.654;9.250;2022-10-30T03:51:24;7.87;;;5.67;;
2201;SDS011;1107;48.654;9.250;2022-10-30T03:53:51;14.30;;;5.77;;
2201;SDS011;1107;48.654;9.250;2022-10-30T03:56:18;12.27;;;7.00;;
2201;SDS011;1107;48.654;9.250;2022-10-30T03:58:45;16.40;;;5.50;;
2201;SDS011;1107;48.654;9.250;2022-10-30T04:01:12;17.57;;;6.10;;
2201;SDS011;1107;48.654;9.250;2022-10-30T04:03:40;7.53;;;6.53;;
2201;SDS011;1107;48.654;9.250;2022-10-30T04:06:07;11.37;;;5.90;;
2201;SDS011;1107;48.654;9.250;2022-10-30T04:08:34;9.37;;;5.30;;
2201;SDS011;1107;48.654;9.250;2022-10-30T04:11:01;5.50;;;5.10;;
2201;SDS011;1107;48.654;9.250;2022-10-30T04:13:28;6.03;;;5.50;;
2201;SDS011;1107;48.654;9.250;2022-10-30T04:15:55;9.77;;;5.27;;
2201;SDS011;1107;48.654;9.250;2022-10-30T04:18:22;10.47;;;6.20;;
2201;SDS011;1107;48.654;9.250;2022-10-30T04:20:51;6.23;;;5.37;;
2201;SDS011;1107;48.654;9.250;2022-10-30T04:23:19;9.00;;;5.83;;
2201;SDS011;1107;48.654;9.250;2022-10-30T04:25:47;10.30;;;5.80;;
2201;SDS011;1107;48.654;9.250;2022-10-30T04:28:14;9.43;;;6.70;;
2201;SDS011;1107;48.654;9.250;2022-10-30T04:30:41;14.83;;;6.57;;
2201;SDS011;1107;48.654;9.250;2022-10-30T04:33:10;12.93;;;6.20;;
2201;SDS011;1107;48.654;9.250;2022-10-30T04:35:39;9.70;;;5.90;;
2201;SDS011;1107;48.654;9.250;2022-10-30T04:38:09;10.90;;;5.03;;
2201;SDS011;1107;48.654;9.250;2022-10-30T04:40:37;13.73;;;5.57;;
2201;SDS011;1107;48.654;9.250;2022-10-30T04:43:07;9.43;;;5.80;;
2201;SDS011;1107;48.654;9.250;2022-10-30T04:45:35;11.57;;;5.47;;
2201;SDS011;1107;48.654;9.250;2022-10-30T04:48:03;20.23;;;6.97;;
2201;SDS011;1107;48.654;9.250;2022-10-30T04:50:32;9.17;;;5.63;;
2201;SDS011;1107;48.654;9.250;2022-10-30T04:53:00;13.33;;;6.03;;
2201;SDS011;1107;48.654;9.250;2022-10-30T04:55:30;5.83;;;5.33;;
2201;SDS011;1107;48.654;9.250;2022-10-30T04:57:57;25.57;;;5.80;;
2201;SDS011;1107;48.654;9.250;2022-10-30T05:00:27;7.17;;;4.90;;
2201;SDS011;1107;48.654;9.250;2022-10-30T05:02:56;8.90;;;6.00;;
2201;SDS011;1107;48.654;9.250;2022-10-30T05:05:24;22.57;;;5.97;;
2201;SDS011;1107;48.654;9.250;2022-10-30T05:07:51;5.77;;;4.97;;
2201;SDS011;1107;48.654;9.250;2022-10-30T05:10:18;12.60;;;6.40;;
2201;SDS011;1107;48.654;9.250;2022-10-30T05:12:47;9.40;;;5.53;;
2201;SDS011;1107;48.654;9.250;2022-10-30T05:15:16;5.60;;;5.10;;
2201;SDS011;1107;48.654;9.250;2022-10-30T05:17:43;14.90;;;6.40;;
2201;SDS011;1107;48.654;9.250;2022-10-30T05:20:10;14.73;;;5.80;;
2201;SDS011;1107;48.654;9.250;2022-10-30T05:22:37;10.40;;;6.20;;
2201;SDS011;1107;48.654;9.250;2022-10-30T05:25:05;5.27;;;4.93;;
2201;SDS011;1107;48.654;9.250;2022-10-30T05:27:32;14.03;;;5.43;;
2201;SDS011;1107;48.654;9.250;2022-10-30T05:30:00;8.40;;;5.03;;
2201;SDS011;1107;48.654;9.250;2022-10-30T05:32:27;5.60;;;5.20;;
2201;SDS011;1107;48.654;9.250;2022-10-30T05:34:54;9.37;;;5.67;;
2201;SDS011;1107;48.654;9.250;2022-10-30T05:37:21;6.40;;;4.70;;
2201;SDS011;1107;48.654;9.250;2022-10-30T05:39:48;5.57;;;4.97;;
2201;SDS011;1107;48.654;9.250;2022-10-30T05:42:15;6.40;;;5.90;;
2201;SDS011;1107;48.654;9.250;2022-10-30T05:44:42;11.90;;;7.23;;
2201;SDS011;1107;48.654;9.250;2022-10-30T05:47:11;7.60;;;5.20;;
2201;SDS011;1107;48.654;9.250;2022-10-30T05:49:37;5.73;;;5.23;;
2201;SDS011;1107;48.654;9.250;2022-10-30T05:52:04;13.13;;;6.83;;
2201;SDS011;1107;48.654;9.250;2022-10-30T05:54:31;10.57;;;8.40;;
2201;SDS011;1107;48.654;9.250;2022-10-30T05:56:58;7.07;;;5.87;;
2201;SDS011;1107;48.654;9.250;2022-10-30T05:59:25;10.63;;;5.63;;
2201;SDS011;1107;48.654;9.250;2022-10-30T06:01:52;7.50;;;5.80;;
2201;SDS011;1107;48.654;9.250;2022-10-30T06:04:21;6.87;;;5.83;;
2201;SDS011;1107;48.654;9.250;2022-10-30T06:06:48;6.00;;;5.47;;
2201;SDS011;1107;48.654;9.250;2022-10-30T06:09:15;14.60;;;6.50;;
2201;SDS011;1107;48.654;9.250;2022-10-30T06:11:42;9.77;;;4.93;;
2201;SDS011;1107;48.654;9.250;2022-10-30T06:14:09;8.60;;;5.07;;
2201;SDS011;1107;48.654;9.250;2022-10-30T06:16:36;11.00;;;5.67;;
2201;SDS011;1107;48.654;9.250;2022-10-30T06:19:03;8.87;;;5.70;;
2201;SDS011;1107;48.654;9.250;2022-10-30T06:21:31;9.50;;;5.80;;
2201;SDS011;1107;48.654;9.250;2022-10-30T06:23:58;18.93;;;5.70;;
2201;SDS011;1107;48.654;9.250;2022-10-30T06:26:25;13.53;;;6.33;;
2201;SDS011;1107;48.654;9.250;2022-10-30T06:28:52;5.57;;;5.27;;
2201;SDS011;1107;48.654;9.250;2022-10-30T06:31:19;10.27;;;6.00;;
2201;SDS011;1107;48.654;9.250;2022-10-30T06:33:46;7.10;;;5.53;;
2201;SDS011;1107;48.654;9.250;2022-10-30T06:36:13;13.90;;;5.90;;
2201;SDS011;1107;48.654;9.250;2022-10-30T06:38:42;9.60;;;5.60;;
2201;SDS011;1107;48.654;9.250;2022-10-30T06:41:09;6.20;;;5.60;;
2201;SDS011;1107;48.654;9.250;2022-10-30T06:43:36;7.30;;;5.30;;
2201;SDS011;1107;48.654;9.250;2022-10-30T06:46:03;17.00;;;6.80;;
2201;SDS011;1107;48.654;9.250;2022-10-30T06:48:30;9.37;;;5.53;;
2201;SDS011;1107;48.654;9.250;2022-10-30T06:50:58;6.70;;;5.10;;
2201;SDS011;1107;48.654;9.250;2022-10-30T06:53:27;10.50;;;5.57;;
2201;SDS011;1107;48.654;9.250;2022-10-30T06:55:56;6.17;;;5.63;;
2201;SDS011;1107;48.654;9.250;2022-10-30T06:58:23;16.50;;;6.00;;
2201;SDS011;1107;48.654;9.250;2022-10-30T07:00:51;7.70;;;5.97;;
2201;SDS011;1107;48.654;9.250;2022-10-30T07:03:18;12.33;;;6.83;;
2201;SDS011;1107;48.654;9.250;2022-10-30T07:05:45;16.63;;;6.17;;
2201;SDS011;1107;48.654;9.250;2022-10-30T07:08:13;12.43;;;6.20;;
2201;SDS011;1107;48.654;9.250;2022-10-30T07:10:40;5.23;;;4.83;;
2201;SDS011;1107;48.654;9.250;2022-10-30T07:13:08;10.07;;;5.43;;
2201;SDS011;1107;48.654;9.250;2022-10-30T07:15:35;6.03;;;5.50;;
2201;SDS011;1107;48.654;9.250;2022-10-30T07:18:03;11.07;;;5.03;;
2201;SDS011;1107;48.654;9.250;2022-10-30T07:20:31;8.83;;;4.77;;
2201;SDS011;1107;48.654;9.250;2022-10-30T07:22:59;6.40;;;5.30;;
2201;SDS011;1107;48.654;9.250;2022-10-30T07:25:26;8.30;;;5.33;;
2201;SDS011;1107;48.654;9.250;2022-10-30T07:27:53;8.13;;;5.50;;
2201;SDS011;1107;48.654;9.250;2022-10-30T07:30:24;6.60;;;5.17;;
2201;SDS011;1107;48.654;9.250;2022-10-30T07:32:55;5.93;;;5.43;;
2201;SDS011;1107;48.654;9.250;2022-10-30T07:35:22;5.90;;;5.30;;
2201;SDS011;1107;48.654;9.250;2022-10-30T07:37:49;6.70;;;6.03;;
2201;SDS011;1107;48.654;9.250;2022-10-30T07:40:16;6.20;;;5.60;;
2201;SDS011;1107;48.654;9.250;2022-10-30T07:42:44;6.83;;;5.30;;
2201;SDS011;1107;48.654;9.250;2022-10-30T07:45:12;9.07;;;5.13;;
2201;SDS011;1107;48.654;9.250;2022-10-30T07:47:40;13.53;;;5.60;;
2201;SDS011;1107;48.654;9.250;2022-10-30T07:50:08;6.00;;;4.97;;
2201;SDS011;1107;48.654;9.250;2022-10-30T07:52:36;15.83;;;5.30;;
2201;SDS011;1107;48.654;9.250;2022-10-30T07:55:03;5.40;;;5.00;;
2201;SDS011;1107;48.654;9.250;2022-10-30T07:57:33;8.03;;;4.47;;
2201;SDS011;1107;48.654;9.250;2022-10-30T08:00:01;13.53;;;4.40;;
2201;SDS011;1107;48.654;9.250;2022-10-30T08:02:29;20.48;;;4.47;;
2201;SDS011;1107;48.654;9.250;2022-10-30T08:04:57;7.00;;;5.07;;
2201;SDS011;1107;48.654;9.250;2022-10-30T08:07:27;13.97;;;4.40;;
2201;SDS011;1107;48.654;9.250;2022-10-30T08:09:55;9.83;;;5.63;;
2201;SDS011;1107;48.654;9.250;2022-10-30T08:12:22;13.07;;;5.17;;
2201;SDS011;1107;48.654;9.250;2022-10-30T08:14:49;7.30;;;5.50;;
2201;SDS011;1107;48.654;9.250;2022-10-30T08:17:16;5.10;;;4.80;;
2201;SDS011;1107;48.654;9.250;2022-10-30T08:19:43;13.67;;;4.87;;
2201;SDS011;1107;48.654;9.250;2022-10-30T08:22:11;6.20;;;5.17;;
2201;SDS011;1107;48.654;9.250;2022-10-30T08:24:39;12.80;;;5.50;;
2201;SDS011;1107;48.654;9.250;2022-10-30T08:27:05;10.90;;;4.83;;
2201;SDS011;1107;48.654;9.250;2022-10-30T08:29:32;5.40;;;4.90;;
2201;SDS011;1107;48.654;9.250;2022-10-30T08:32:00;5.43;;;5.13;;
2201;SDS011;1107;48.654;9.250;2022-10-30T08:34:27;8.00;;;5.47;;
2201;SDS011;1107;48.654;9.250;2022-10-30T08:36:56;8.43;;;5.27;;
2201;SDS011;1107;48.654;9.250;2022-10-30T08:39:25;11.50;;;4.63;;
2201;SDS011;1107;48.654;9.250;2022-10-30T08:41:52;9.50;;;5.50;;
2201;SDS011;1107;48.654;9.250;2022-10-30T08:44:19;8.13;;;4.87;;
2201;SDS011;1107;48.654;9.250;2022-10-30T08:46:46;12.10;;;4.63;;
2201;SDS011;1107;48.654;9.250;2022-10-30T08:49:13;7.37;;;4.90;;
2201;SDS011;1107;48.654;9.250;2022-10-30T08:51:40;14.17;;;4.70;;
2201;SDS011;1107;48.654;9.250;2022-10-30T08:54:08;10.40;;;5.10;;
2201;SDS011;1107;48.654;9.250;2022-10-30T08:56:37;7.30;;;4.97;;
2201;SDS011;1107;48.654;9.250;2022-10-30T08:59:05;7.77;;;5.10;;
2201;SDS011;1107;48.654;9.250;2022-10-30T09:01:32;7.77;;;4.50;;
2201;SDS011;1107;48.654;9.250;2022-10-30T09:04:00;5.40;;;4.90;;
2201;SDS011;1107;48.654;9.250;2022-10-30T09:06:28;8.50;;;5.40;;
2201;SDS011;1107;48.654;9.250;2022-10-30T09:08:55;10.50;;;5.63;;
2201;SDS011;1107;48.654;9.250;2022-10-30T09:11:22;24.63;;;4.70;;
2201;SDS011;1107;48.654;9.250;2022-10-30T09:13:51;10.23;;;4.80;;
2201;SDS011;1107;48.654;9.250;2022-10-30T09:16:17;7.37;;;5.10;;
2201;SDS011;1107;48.654;9.250;2022-10-30T09:18:44;5.20;;;4.80;;
2201;SDS011;1107;48.654;9.250;2022-10-30T09:21:11;7.40;;;4.70;;
2201;SDS011;1107;48.654;9.250;2022-10-30T09:23:38;5.17;;;4.73;;
2201;SDS011;1107;48.654;9.250;2022-10-30T09:26:07;13.80;;;6.00;;
2201;SDS011;1107;48.654;9.250;2022-10-30T09:28:34;11.13;;;5.17;;
2201;SDS011;1107;48.654;9.250;2022-10-30T09:31:03;6.07;;;5.23;;
2201;SDS011;1107;48.654;9.250;2022-10-30T09:33:30;10.20;;;5.20;;
2201;SDS011;1107;48.654;9.250;2022-10-30T09:35:57;10.57;;;5.40;;
2201;SDS011;1107;48.654;9.250;2022-10-30T09:38:26;5.43;;;4.93;;
2201;SDS011;1107;48.654;9.250;2022-10-30T09:41:05;5.10;;;4.43;;
2201;SDS011;1107;48.654;9.250;2022-10-30T09:43:45;19.43;;;5.73;;
2201;SDS011;1107;48.654;9.250;2022-10-30T09:46:24;5.30;;;4.80;;
2201;SDS011;1107;48.654;9.250;2022-10-30T09:49:03;4.27;;;3.97;;
2201;SDS011;1107;48.654;9.250;2022-10-30T09:51:52;15.23;;;4.80;;
2201;SDS011;1107;48.654;9.250;2022-10-30T09:54:33;9.00;;;4.67;;
2201;SDS011;1107;48.654;9.250;2022-10-30T09:57:09;5.73;;;4.80;;
2201;SDS011;1107;48.654;9.250;2022-10-30T09:59:43;5.23;;;4.47;;
2201;SDS011;1107;48.654;9.250;2022-10-30T10:02:26;7.63;;;4.60;;
2201;SDS011;1107;48.654;9.250;2022-10-30T10:05:02;5.60;;;4.70;;
2201;SDS011;1107;48.654;9.250;2022-10-30T10:07:40;11.93;;;4.37;;
2201;SDS011;1107;48.654;9.250;2022-10-30T10:10:12;12.60;;;5.23;;
2201;SDS011;1107;48.654;9.250;2022-10-30T10:12:45;4.87;;;4.37;;
2201;SDS011;1107;48.654;9.250;2022-10-30T10:15:16;6.20;;;4.90;;
2201;SDS011;1107;48.654;9.250;2022-10-30T10:17:50;6.50;;;4.67;;
2201;SDS011;1107;48.654;9.250;2022-10-30T10:20:22;6.20;;;4.70;;
2201;SDS011;1107;48.654;9.250;2022-10-30T10:22:55;6.63;;;4.90;;
2201;SDS011;1107;48.654;9.250;2022-10-30T10:25:24;7.90;;;4.40;;
2201;SDS011;1107;48.654;9.250;2022-10-30T10:28:01;5.73;;;4.40;;
2201;SDS011;1107;48.654;9.250;2022-10-30T10:30:41;5.00;;;4.30;;
2201;SDS011;1107;48.654;9.250;2022-10-30T10:33:27;8.87;;;4.90;;
2201;SDS011;1107;48.654;9.250;2022-10-30T10:36:15;5.67;;;4.40;;
2201;SDS011;1107;48.654;9.250;2022-10-30T10:41:52;4.20;;;3.93;;
2201;SDS011;1107;48.654;9.250;2022-10-30T10:44:27;4.60;;;4.30;;
2201;SDS011;1107;48.654;9.250;2022-10-30T10:47:04;4.83;;;4.37;;
2201;SDS011;1107;48.654;9.250;2022-10-30T10:49:47;8.60;;;5.00;;
2201;SDS011;1107;48.654;9.250;2022-10-30T10:52:29;19.80;;;4.73;;
2201;SDS011;1107;48.654;9.250;2022-10-30T10:55:03;13.83;;;5.30;;
2201;SDS011;1107;48.654;9.250;2022-10-30T10:57:35;4.77;;;4.47;;
2201;SDS011;1107;48.654;9.250;2022-10-30T11:00:05;4.50;;;3.80;;
2201;SDS011;1107;48.654;9.250;2022-10-30T11:02:35;5.10;;;4.30;;
2201;SDS011;1107;48.654;9.250;2022-10-30T11:05:11;6.63;;;4.83;;
2201;SDS011;1107;48.654;9.250;2022-10-30T11:07:47;6.13;;;4.37;;
2201;SDS011;1107;48.654;9.250;2022-10-30T11:10:15;5.40;;;4.20;;
2201;SDS011;1107;48.654;9.250;2022-10-30T11:12:44;6.93;;;4.13;;
2201;SDS011;1107;48.654;9.250;2022-10-30T11:15:17;5.30;;;4.83;;
2201;SDS011;1107;48.654;9.250;2022-10-30T11:18:04;5.30;;;4.67;;
2201;SDS011;1107;48.654;9.250;2022-10-30T11:20:37;4.10;;;3.90;;
2201;SDS011;1107;48.654;9.250;2022-10-30T11:26:04;5.03;;;4.53;;
2201;SDS011;1107;48.654;9.250;2022-10-30T11:28:52;5.90;;;4.33;;
2201;SDS011;1107;48.654;9.250;2022-10-30T11:31:22;7.50;;;3.93;;
2201;SDS011;1107;48.654;9.250;2022-10-30T11:33:52;4.40;;;4.00;;
2201;SDS011;1107;48.654;9.250;2022-10-30T11:36:22;5.23;;;4.77;;
2201;SDS011;1107;48.654;9.250;2022-10-30T11:38:50;10.03;;;4.37;;
2201;SDS011;1107;48.654;9.250;2022-10-30T11:41:19;9.50;;;4.00;;
2201;SDS011;1107;48.654;9.250;2022-10-30T11:43:46;5.73;;;4.10;;
2201;SDS011;1107;48.654;9.250;2022-10-30T11:46:18;8.63;;;4.20;;
2201;SDS011;1107;48.654;9.250;2022-10-30T11:48:47;8.40;;;4.20;;
2201;SDS011;1107;48.654;9.250;2022-10-30T11:51:29;6.30;;;4.23;;
2201;SDS011;1107;48.654;9.250;2022-10-30T11:53:59;11.40;;;3.97;;
2201;SDS011;1107;48.654;9.250;2022-10-30T11:56:27;5.57;;;5.13;;
2201;SDS011;1107;48.654;9.250;2022-10-30T11:58:55;7.03;;;4.23;;
2201;SDS011;1107;48.654;9.250;2022-10-30T12:01:25;8.13;;;4.80;;
2201;SDS011;1107;48.654;9.250;2022-10-30T12:03:54;4.30;;;3.90;;
2201;SDS011;1107;48.654;9.250;2022-10-30T12:06:25;7.87;;;4.20;;
2201;SDS011;1107;48.654;9.250;2022-10-30T12:09:02;4.53;;;4.13;;
2201;SDS011;1107;48.654;9.250;2022-10-30T12:11:35;6.20;;;4.03;;
2201;SDS011;1107;48.654;9.250;2022-10-30T12:14:03;5.00;;;4.00;;
2201;SDS011;1107;48.654;9.250;2022-10-30T12:16:31;5.33;;;4.60;;
2201;SDS011;1107;48.654;9.250;2022-10-30T12:19:00;12.10;;;4.43;;
2201;SDS011;1107;48.654;9.250;2022-10-30T12:21:29;4.33;;;4.07;;
2201;SDS011;1107;48.654;9.250;2022-10-30T12:24:03;4.57;;;3.57;;
2201;SDS011;1107;48.654;9.250;2022-10-30T12:26:33;5.10;;;3.90;;
2201;SDS011;1107;48.654;9.250;2022-10-30T12:29:03;14.07;;;4.70;;
2201;SDS011;1107;48.654;9.250;2022-10-30T12:31:34;4.77;;;3.70;;
2201;SDS011;1107;48.654;9.250;2022-10-30T12:36:52;4.23;;;3.83;;
2201;SDS011;1107;48.654;9.250;2022-10-30T12:39:28;4.27;;;3.93;;
2201;SDS011;1107;48.654;9.250;2022-10-30T12:42:02;6.23;;;4.17;;
2201;SDS011;1107;48.654;9.250;2022-10-30T12:44:36;10.93;;;3.97;;
2201;SDS011;1107;48.654;9.250;2022-10-30T12:47:07;10.07;;;3.90;;
2201;SDS011;1107;48.654;9.250;2022-10-30T12:49:39;11.13;;;3.50;;
2201;SDS011;1107;48.654;9.250;2022-10-30T12:52:10;5.80;;;4.73;;
2201;SDS011;1107;48.654;9.250;2022-10-30T12:54:44;5.93;;;4.53;;
2201;SDS011;1107;48.654;9.250;2022-10-30T12:57:16;6.80;;;4.40;;
2201;SDS011;1107;48.654;9.250;2022-10-30T12:59:50;6.90;;;4.40;;
2201;SDS011;1107;48.654;9.250;2022-10-30T13:02:27;6.20;;;4.80;;
2201;SDS011;1107;48.654;9.250;2022-10-30T13:05:03;5.77;;;5.37;;
2201;SDS011;1107;48.654;9.250;2022-10-30T13:07:40;9.63;;;5.00;;
2201;SDS011;1107;48.654;9.250;2022-10-30T13:10:20;5.23;;;4.83;;
2201;SDS011;1107;48.654;9.250;2022-10-30T13:12:51;10.10;;;4.20;;
2201;SDS011;1107;48.654;9.250;2022-10-30T13:15:27;9.43;;;4.60;;
2201;SDS011;1107;48.654;9.250;2022-10-30T13:17:56;4.60;;;3.87;;
2201;SDS011;1107;48.654;9.250;2022-10-30T13:20:25;7.40;;;4.43;;
2201;SDS011;1107;48.654;9.250;2022-10-30T13:22:54;5.90;;;4.33;;
2201;SDS011;1107;48.654;9.250;2022-10-30T13:25:28;5.43;;;4.77;;
2201;SDS011;1107;48.654;9.250;2022-10-30T13:28:02;4.87;;;4.57;;
2201;SDS011;1107;48.654;9.250;2022-10-30T13:30:33;17.67;;;4.80;;
2201;SDS011;1107;48.654;9.250;2022-10-30T13:33:08;19.90;;;5.00;;
2201;SDS011;1107;48.654;9.250;2022-10-30T13:35:41;4.43;;;4.13;;
2201;SDS011;1107;48.654;9.250;2022-10-30T13:38:24;5.00;;;4.50;;
2201;SDS011;1107;48.654;9.250;2022-10-30T13:41:07;12.20;;;5.10;;
2201;SDS011;1107;48.654;9.250;2022-10-30T13:43:43;4.63;;;4.23;;
2201;SDS011;1107;48.654;9.250;2022-10-30T13:46:20;7.80;;;4.37;;
2201;SDS011;1107;48.654;9.250;2022-10-30T13:48:58;5.70;;;4.47;;
2201;SDS011;1107;48.654;9.250;2022-10-30T13:51:37;21.07;;;4.40;;
2201;SDS011;1107;48.654;9.250;2022-10-30T13:54:09;4.97;;;3.63;;
2201;SDS011;1107;48.654;9.250;2022-10-30T13:56:44;6.00;;;4.30;;
2201;SDS011;1107;48.654;9.250;2022-10-30T13:59:19;4.40;;;4.00;;
2201;SDS011;1107;48.654;9.250;2022-10-30T14:01:54;4.00;;;3.70;;
2201;SDS011;1107;48.654;9.250;2022-10-30T14:04:26;8.57;;;4.60;;
2201;SDS011;1107;48.654;9.250;2022-10-30T14:07:01;10.93;;;4.63;;
2201;SDS011;1107;48.654;9.250;2022-10-30T14:09:42;4.30;;;4.00;;
2201;SDS011;1107;48.654;9.250;2022-10-30T14:15:16;18.27;;;4.50;;
2201;SDS011;1107;48.654;9.250;2022-10-30T14:24:01;7.90;;;3.40;;
2201;SDS011;1107;48.654;9.250;2022-10-30T14:26:35;7.10;;;4.30;;
2201;SDS011;1107;48.654;9.250;2022-10-30T14:35:23;5.17;;;4.30;;
2201;SDS011;1107;48.654;9.250;2022-10-30T14:38:22;4.57;;;4.27;;
2201;SDS011;1107;48.654;9.250;2022-10-30T14:44:15;9.10;;;3.80;;
2201;SDS011;1107;48.654;9.250;2022-10-30T14:46:56;4.83;;;4.20;;
2201;SDS011;1107;48.654;9.250;2022-10-30T14:49:43;4.47;;;4.10;;
2201;SDS011;1107;48.654;9.250;2022-10-30T14:52:26;6.30;;;4.27;;
2201;SDS011;1107;48.654;9.250;2022-10-30T14:55:04;5.50;;;4.23;;
2201;SDS011;1107;48.654;9.250;2022-10-30T14:57:51;11.10;;;4.80;;
2201;SDS011;1107;48.654;9.250;2022-10-30T15:00:38;4.90;;;4.50;;
2201;SDS011;1107;48.654;9.250;2022-10-30T15:03:14;7.00;;;4.53;;
2201;SDS011;1107;48.654;9.250;2022-10-30T15:05:51;6.03;;;4.70;;
2201;SDS011;1107;48.654;9.250;2022-10-30T15:08:29;8.43;;;5.27;;
2201;SDS011;1107;48.654;9.250;2022-10-30T15:11:16;16.23;;;8.30;;
2201;SDS011;1107;48.654;9.250;2022-10-30T15:13:52;7.20;;;5.93;;
2201;SDS011;1107;48.654;9.250;2022-10-30T15:16:22;5.80;;;5.30;;
2201;SDS011;1107;48.654;9.250;2022-10-30T15:18:54;9.00;;;4.80;;
2201;SDS011;1107;48.654;9.250;2022-10-30T15:21:25;4.83;;;4.20;;
2201;SDS011;1107;48.654;9.250;2022-10-30T15:23:57;11.20;;;4.67;;
2201;SDS011;1107;48.654;9.250;2022-10-30T15:26:26;11.83;;;4.07;;
2201;SDS011;1107;48.654;9.250;2022-10-30T15:28:58;21.03;;;4.53;;
2201;SDS011;1107;48.654;9.250;2022-10-30T15:31:26;3.50;;;3.30;;
2201;SDS011;1107;48.654;9.250;2022-10-30T15:33:55;9.93;;;4.50;;
2201;SDS011;1107;48.654;9.250;2022-10-30T15:36:23;7.23;;;3.90;;
2201;SDS011;1107;48.654;9.250;2022-10-30T15:39:05;4.57;;;4.17;;
2201;SDS011;1107;48.654;9.250;2022-10-30T15:41:37;15.07;;;5.37;;
2201;SDS011;1107;48.654;9.250;2022-10-30T15:44:08;4.20;;;3.80;;
2201;SDS011;1107;48.654;9.250;2022-10-30T15:46:37;9.00;;;4.50;;
2201;SDS011;1107;48.654;9.250;2022-10-30T15:49:05;7.30;;;4.30;;
2201;SDS011;1107;48.654;9.250;2022-10-30T15:51:33;13.27;;;4.67;;
2201;SDS011;1107;48.654;9.250;2022-10-30T15:54:01;5.13;;;4.17;;
2201;SDS011;1107;48.654;9.250;2022-10-30T15:56:30;10.33;;;5.90;;
2201;SDS011;1107;48.654;9.250;2022-10-30T15:59:01;7.40;;;5.47;;
2201;SDS011;1107;48.654;9.250;2022-10-30T16:01:30;11.40;;;5.53;;